New Dayton, Canada
Current Conditions -  °F | °C
As of 10:00 PM on Thursday 30 Oct 2014 (Local Time) from CYQL Reporting Station
Broken Clouds Broken Clouds  
Wind Chill: 41°   Ceiling: 27000
Heat Index: 46°   Visibility: 25mi
Dew Point: 36°   Wind: 13mph
Humidity: 66%   Direction: 160°SSE
Pressure: 29.98"   Gusts: NA
Location:  49.42°N, 112.38°W
Report Text: CYQL 310400Z 16011KT 25SM SCT150 BKN270 08/02 A2998 RMK AC3CI3 LAST STFD OBS/NXT 311200Z SLP182
Loading
Personal Weather Stations






























Interactive Weather Map
Tropical Storm Tracking
New forecast layout! Learn more

10-Day Weather Forecast

Advertisements
Track Severe Weather on mobile